sensor_id;sensor_type;location;lat;lon;timestamp;P1;P2;P0
64861;PMS5003;62652;42.274;-71.436;2023-02-28T00:00:00;7.10;5.87;4.23
64861;PMS5003;62652;42.274;-71.436;2023-02-28T00:01:00;7.40;6.00;4.30
64861;PMS5003;62652;42.274;-71.436;2023-02-28T00:02:00;8.67;8.47;4.93
64861;PMS5003;62652;42.274;-71.436;2023-02-28T00:03:00;6.20;4.93;3.70
64861;PMS5003;62652;42.274;-71.436;2023-02-28T00:04:00;8.70;7.83;3.80
64861;PMS5003;62652;42.274;-71.436;2023-02-28T00:05:00;9.83;9.03;5.00
64861;PMS5003;62652;42.274;-71.436;2023-02-28T00:06:00;7.50;6.80;4.17
64861;PMS5003;62652;42.274;-71.436;2023-02-28T00:07:00;8.50;7.47;4.87
64861;PMS5003;62652;42.274;-71.436;2023-02-28T00:08:00;8.00;7.43;5.20
64861;PMS5003;62652;42.274;-71.436;2023-02-28T00:09:00;9.83;9.73;6.53
64861;PMS5003;62652;42.274;-71.436;2023-02-28T00:10:00;8.37;7.47;4.27
64861;PMS5003;62652;42.274;-71.436;2023-02-28T00:11:01;11.43;10.43;7.00
64861;PMS5003;62652;42.274;-71.436;2023-02-28T00:12:00;8.00;8.00;4.87
64861;PMS5003;62652;42.274;-71.436;2023-02-28T00:13:01;10.37;10.03;6.30
64861;PMS5003;62652;42.274;-71.436;2023-02-28T00:14:00;8.57;7.73;4.27
64861;PMS5003;62652;42.274;-71.436;2023-02-28T00:15:00;8.73;7.87;4.83
64861;PMS5003;62652;42.274;-71.436;2023-02-28T00:16:02;8.20;8.20;4.33
64861;PMS5003;62652;42.274;-71.436;2023-02-28T00:17:00;7.67;7.67;6.07
64861;PMS5003;62652;42.274;-71.436;2023-02-28T00:18:00;8.00;8.00;5.00
64861;PMS5003;62652;42.274;-71.436;2023-02-28T00:19:00;10.47;9.67;5.13
64861;PMS5003;62652;42.274;-71.436;2023-02-28T00:20:00;8.50;7.80;4.50
64861;PMS5003;62652;42.274;-71.436;2023-02-28T00:21:00;8.37;8.17;5.00
64861;PMS5003;62652;42.274;-71.436;2023-02-28T00:22:00;8.20;7.90;4.97
64861;PMS5003;62652;42.274;-71.436;2023-02-28T00:23:00;7.57;6.80;4.07
64861;PMS5003;62652;42.274;-71.436;2023-02-28T00:24:00;8.83;8.73;6.40
64861;PMS5003;62652;42.274;-71.436;2023-02-28T00:25:00;9.87;9.03;6.23
64861;PMS5003;62652;42.274;-71.436;2023-02-28T00:26:00;8.00;8.00;5.00
64861;PMS5003;62652;42.274;-71.436;2023-02-28T00:27:00;12.50;10.17;5.07
64861;PMS5003;62652;42.274;-71.436;2023-02-28T00:28:00;9.57;9.47;5.10
64861;PMS5003;62652;42.274;-71.436;2023-02-28T00:29:00;9.60;9.40;5.87
64861;PMS5003;62652;42.274;-71.436;2023-02-28T00:30:00;10.63;9.67;7.60
64861;PMS5003;62652;42.274;-71.436;2023-02-28T00:31:00;7.90;7.90;4.90
64861;PMS5003;62652;42.274;-71.436;2023-02-28T00:32:00;8.43;7.30;5.00
64861;PMS5003;62652;42.274;-71.436;2023-02-28T00:33:00;8.83;7.53;4.60
64861;PMS5003;62652;42.274;-71.436;2023-02-28T00:34:00;8.27;7.10;4.17
64861;PMS5003;62652;42.274;-71.436;2023-02-28T00:35:00;10.40;9.03;5.80
64861;PMS5003;62652;42.274;-71.436;2023-02-28T00:36:02;10.27;9.37;6.00
64861;PMS5003;62652;42.274;-71.436;2023-02-28T00:37:00;10.70;8.63;5.87
64861;PMS5003;62652;42.274;-71.436;2023-02-28T00:38:00;8.53;8.30;4.97
64861;PMS5003;62652;42.274;-71.436;2023-02-28T00:39:00;10.33;9.97;7.83
64861;PMS5003;62652;42.274;-71.436;2023-02-28T00:40:00;9.17;8.90;6.87
64861;PMS5003;62652;42.274;-71.436;2023-02-28T00:41:00;10.40;9.40;6.87
64861;PMS5003;62652;42.274;-71.436;2023-02-28T00:42:00;11.20;9.77;7.80
64861;PMS5003;62652;42.274;-71.436;2023-02-28T00:43:00;7.83;7.83;4.23
64861;PMS5003;62652;42.274;-71.436;2023-02-28T00:44:00;9.87;9.40;6.13
64861;PMS5003;62652;42.274;-71.436;2023-02-28T00:45:00;10.77;9.37;5.00
64861;PMS5003;62652;42.274;-71.436;2023-02-28T00:46:00;8.93;7.47;4.90
64861;PMS5003;62652;42.274;-71.436;2023-02-28T00:47:00;8.73;8.73;5.67
64861;PMS5003;62652;42.274;-71.436;2023-02-28T00:48:00;9.03;8.50;5.73
64861;PMS5003;62652;42.274;-71.436;2023-02-28T00:49:00;6.77;5.67;3.33
64861;PMS5003;62652;42.274;-71.436;2023-02-28T00:50:00;7.70;6.83;4.60
64861;PMS5003;62652;42.274;-71.436;2023-02-28T00:51:00;9.23;7.80;4.77
64861;PMS5003;62652;42.274;-71.436;2023-02-28T00:52:00;8.27;7.53;5.23
64861;PMS5003;62652;42.274;-71.436;2023-02-28T00:53:00;9.60;8.93;5.53
64861;PMS5003;62652;42.274;-71.436;2023-02-28T00:54:00;10.30;9.20;5.73
64861;PMS5003;62652;42.274;-71.436;2023-02-28T00:55:00;9.43;7.57;4.50
64861;PMS5003;62652;42.274;-71.436;2023-02-28T00:56:00;11.07;8.87;6.30
64861;PMS5003;62652;42.274;-71.436;2023-02-28T00:57:00;7.87;7.53;4.33
64861;PMS5003;62652;42.274;-71.436;2023-02-28T00:58:00;8.17;7.40;4.10
64861;PMS5003;62652;42.274;-71.436;2023-02-28T00:59:00;7.73;7.27;4.67
64861;PMS5003;62652;42.274;-71.436;2023-02-28T01:00:00;8.40;7.83;4.43
64861;PMS5003;62652;42.274;-71.436;2023-02-28T01:01:00;8.30;7.57;5.40
64861;PMS5003;62652;42.274;-71.436;2023-02-28T01:02:00;9.57;9.10;5.27
64861;PMS5003;62652;42.274;-71.436;2023-02-28T01:03:00;10.07;8.23;4.20
64861;PMS5003;62652;42.274;-71.436;2023-02-28T01:04:00;9.00;7.57;4.70
64861;PMS5003;62652;42.274;-71.436;2023-02-28T01:05:00;9.10;7.67;5.73
64861;PMS5003;62652;42.274;-71.436;2023-02-28T01:06:00;5.93;5.70;3.43
64861;PMS5003;62652;42.274;-71.436;2023-02-28T01:07:00;7.57;6.97;4.27
64861;PMS5003;62652;42.274;-71.436;2023-02-28T01:08:00;8.50;7.57;4.67
64861;PMS5003;62652;42.274;-71.436;2023-02-28T01:09:00;7.60;7.27;5.30
64861;PMS5003;62652;42.274;-71.436;2023-02-28T01:10:00;6.40;5.23;3.80
64861;PMS5003;62652;42.274;-71.436;2023-02-28T01:11:09;7.70;7.10;4.40
64861;PMS5003;62652;42.274;-71.436;2023-02-28T01:12:00;8.47;7.97;4.87
64861;PMS5003;62652;42.274;-71.436;2023-02-28T01:13:00;10.00;9.17;6.07
64861;PMS5003;62652;42.274;-71.436;2023-02-28T01:14:01;11.43;9.80;7.07
64861;PMS5003;62652;42.274;-71.436;2023-02-28T01:15:00;8.00;7.73;4.90
64861;PMS5003;62652;42.274;-71.436;2023-02-28T01:16:00;7.57;6.60;4.60
64861;PMS5003;62652;42.274;-71.436;2023-02-28T01:17:00;7.80;7.33;4.43
64861;PMS5003;62652;42.274;-71.436;2023-02-28T01:18:00;8.63;7.93;4.17
64861;PMS5003;62652;42.274;-71.436;2023-02-28T01:19:00;7.83;7.03;4.47
64861;PMS5003;62652;42.274;-71.436;2023-02-28T01:20:00;9.37;7.37;4.57
64861;PMS5003;62652;42.274;-71.436;2023-02-28T01:21:03;7.87;6.80;4.03
64861;PMS5003;62652;42.274;-71.436;2023-02-28T01:22:01;8.87;8.80;4.47
64861;PMS5003;62652;42.274;-71.436;2023-02-28T01:23:00;8.47;7.83;4.27
64861;PMS5003;62652;42.274;-71.436;2023-02-28T01:24:00;9.10;8.50;4.70
64861;PMS5003;62652;42.274;-71.436;2023-02-28T01:25:00;6.33;6.20;3.73
64861;PMS5003;62652;42.274;-71.436;2023-02-28T01:26:03;8.23;7.73;4.77
64861;PMS5003;62652;42.274;-71.436;2023-02-28T01:27:00;7.97;7.70;5.00
64861;PMS5003;62652;42.274;-71.436;2023-02-28T01:28:00;9.10;8.67;5.20
64861;PMS5003;62652;42.274;-71.436;2023-02-28T01:29:00;7.27;6.80;4.33
64861;PMS5003;62652;42.274;-71.436;2023-02-28T01:30:00;8.67;7.80;4.97
64861;PMS5003;62652;42.274;-71.436;2023-02-28T01:31:00;8.03;7.47;5.00
64861;PMS5003;62652;42.274;-71.436;2023-02-28T01:32:00;8.73;8.30;5.63
64861;PMS5003;62652;42.274;-71.436;2023-02-28T01:33:00;8.70;7.57;4.00
64861;PMS5003;62652;42.274;-71.436;2023-02-28T01:34:00;8.60;6.60;4.17
64861;PMS5003;62652;42.274;-71.436;2023-02-28T01:35:00;8.37;8.10;4.20
64861;PMS5003;62652;42.274;-71.436;2023-02-28T01:36:00;7.17;6.67;4.27
64861;PMS5003;62652;42.274;-71.436;2023-02-28T01:37:00;8.23;7.27;4.50
64861;PMS5003;62652;42.274;-71.436;2023-02-28T01:38:00;8.80;8.03;5.20
64861;PMS5003;62652;42.274;-71.436;2023-02-28T01:39:00;8.33;7.20;4.33
64861;PMS5003;62652;42.274;-71.436;2023-02-28T01:40:00;7.53;6.93;3.70
64861;PMS5003;62652;42.274;-71.436;2023-02-28T01:41:00;9.53;7.80;4.53
64861;PMS5003;62652;42.274;-71.436;2023-02-28T01:42:00;7.80;6.30;4.27
64861;PMS5003;62652;42.274;-71.436;2023-02-28T01:43:00;9.53;9.13;6.10
64861;PMS5003;62652;42.274;-71.436;2023-02-28T01:44:03;6.93;5.93;3.13
64861;PMS5003;62652;42.274;-71.436;2023-02-28T01:45:02;7.57;7.23;3.87
64861;PMS5003;62652;42.274;-71.436;2023-02-28T01:46:00;7.97;7.80;4.30
64861;PMS5003;62652;42.274;-71.436;2023-02-28T01:47:00;8.40;7.30;4.20
64861;PMS5003;62652;42.274;-71.436;2023-02-28T01:48:02;8.03;6.60;3.60
64861;PMS5003;62652;42.274;-71.436;2023-02-28T01:49:02;9.40;8.87;5.60
64861;PMS5003;62652;42.274;-71.436;2023-02-28T01:50:01;9.20;9.03;5.97
64861;PMS5003;62652;42.274;-71.436;2023-02-28T01:51:01;7.83;7.63;4.33
64861;PMS5003;62652;42.274;-71.436;2023-02-28T01:52:00;6.83;6.07;4.27
64861;PMS5003;62652;42.274;-71.436;2023-02-28T01:53:01;7.80;6.90;4.33
64861;PMS5003;62652;42.274;-71.436;2023-02-28T01:54:01;8.77;8.47;4.70
64861;PMS5003;62652;42.274;-71.436;2023-02-28T01:55:01;7.23;6.73;4.07
64861;PMS5003;62652;42.274;-71.436;2023-02-28T01:56:00;8.50;8.00;4.10
64861;PMS5003;62652;42.274;-71.436;2023-02-28T01:57:01;6.07;5.10;3.07
64861;PMS5003;62652;42.274;-71.436;2023-02-28T01:58:01;9.13;8.23;4.50
64861;PMS5003;62652;42.274;-71.436;2023-02-28T01:59:00;7.63;6.53;3.63
64861;PMS5003;62652;42.274;-71.436;2023-02-28T02:00:01;7.40;6.90;4.97
64861;PMS5003;62652;42.274;-71.436;2023-02-28T02:01:00;7.83;7.10;4.40
64861;PMS5003;62652;42.274;-71.436;2023-02-28T02:02:00;7.07;6.90;3.77
64861;PMS5003;62652;42.274;-71.436;2023-02-28T02:03:01;6.33;5.80;3.83
64861;PMS5003;62652;42.274;-71.436;2023-02-28T02:04:01;7.70;7.23;4.00
64861;PMS5003;62652;42.274;-71.436;2023-02-28T02:05:05;6.40;6.00;3.43
64861;PMS5003;62652;42.274;-71.436;2023-02-28T02:06:01;7.73;7.10;3.90
64861;PMS5003;62652;42.274;-71.436;2023-02-28T02:07:00;6.87;6.00;3.40
64861;PMS5003;62652;42.274;-71.436;2023-02-28T02:08:02;7.70;7.43;4.43
64861;PMS5003;62652;42.274;-71.436;2023-02-28T02:09:00;6.40;5.60;4.00
64861;PMS5003;62652;42.274;-71.436;2023-02-28T02:10:00;7.83;6.60;4.47
64861;PMS5003;62652;42.274;-71.436;2023-02-28T02:11:01;6.23;5.57;3.40
64861;PMS5003;62652;42.274;-71.436;2023-02-28T02:12:00;7.43;5.90;3.83
64861;PMS5003;62652;42.274;-71.436;2023-02-28T02:13:04;6.13;6.13;3.70
64861;PMS5003;62652;42.274;-71.436;2023-02-28T02:15:01;7.77;6.80;3.90
64861;PMS5003;62652;42.274;-71.436;2023-02-28T02:16:03;6.27;6.27;4.40
64861;PMS5003;62652;42.274;-71.436;2023-02-28T02:17:05;7.07;5.47;4.20
64861;PMS5003;62652;42.274;-71.436;2023-02-28T02:18:01;7.87;7.00;4.00
64861;PMS5003;62652;42.274;-71.436;2023-02-28T02:19:02;5.07;5.07;3.57
64861;PMS5003;62652;42.274;-71.436;2023-02-28T02:20:07;5.57;4.80;3.60
64861;PMS5003;62652;42.274;-71.436;2023-02-28T02:24:10;7.00;6.60;4.27
64861;PMS5003;62652;42.274;-71.436;2023-02-28T02:25:05;7.10;5.87;3.00
64861;PMS5003;62652;42.274;-71.436;2023-02-28T02:26:03;9.20;8.40;4.97
64861;PMS5003;62652;42.274;-71.436;2023-02-28T02:27:06;8.80;6.60;3.80
64861;PMS5003;62652;42.274;-71.436;2023-02-28T02:28:07;4.57;4.57;3.17
64861;PMS5003;62652;42.274;-71.436;2023-02-28T02:29:05;6.80;6.27;4.00
64861;PMS5003;62652;42.274;-71.436;2023-02-28T02:30:07;7.87;7.20;4.77
64861;PMS5003;62652;42.274;-71.436;2023-02-28T02:31:06;5.33;5.33;3.07
64861;PMS5003;62652;42.274;-71.436;2023-02-28T02:32:05;7.50;7.00;4.00
64861;PMS5003;62652;42.274;-71.436;2023-02-28T02:35:01;4.10;4.10;3.93
64861;PMS5003;62652;42.274;-71.436;2023-02-28T02:36:01;4.83;4.83;3.50
64861;PMS5003;62652;42.274;-71.436;2023-02-28T02:37:03;7.07;6.47;3.73
64861;PMS5003;62652;42.274;-71.436;2023-02-28T02:38:02;7.27;5.33;3.00
64861;PMS5003;62652;42.274;-71.436;2023-02-28T02:39:02;5.40;5.40;3.43
64861;PMS5003;62652;42.274;-71.436;2023-02-28T02:40:02;7.63;6.80;3.10
64861;PMS5003;62652;42.274;-71.436;2023-02-28T02:41:04;6.20;5.73;3.63
64861;PMS5003;62652;42.274;-71.436;2023-02-28T02:42:00;4.80;4.80;3.37
64861;PMS5003;62652;42.274;-71.436;2023-02-28T02:43:01;7.90;6.83;4.00
64861;PMS5003;62652;42.274;-71.436;2023-02-28T02:44:02;7.83;6.63;4.10
64861;PMS5003;62652;42.274;-71.436;2023-02-28T02:45:01;7.20;6.80;4.33
64861;PMS5003;62652;42.274;-71.436;2023-02-28T02:46:02;7.37;7.10;4.23
64861;PMS5003;62652;42.274;-71.436;2023-02-28T02:47:01;4.43;3.90;2.90
64861;PMS5003;62652;42.274;-71.436;2023-02-28T02:48:00;6.60;5.00;3.17
64861;PMS5003;62652;42.274;-71.436;2023-02-28T02:49:00;7.27;6.20;3.53
64861;PMS5003;62652;42.274;-71.436;2023-02-28T02:50:02;6.60;5.47;4.00
64861;PMS5003;62652;42.274;-71.436;2023-02-28T02:51:01;9.37;8.57;4.77
64861;PMS5003;62652;42.274;-71.436;2023-02-28T02:52:01;9.40;8.10;3.73
64861;PMS5003;62652;42.274;-71.436;2023-02-28T02:53:00;6.17;4.93;3.50
64861;PMS5003;62652;42.274;-71.436;2023-02-28T02:54:02;11.33;9.70;4.93
64861;PMS5003;62652;42.274;-71.436;2023-02-28T02:55:00;5.47;5.27;3.00
64861;PMS5003;62652;42.274;-71.436;2023-02-28T02:56:00;7.87;5.97;3.33
64861;PMS5003;62652;42.274;-71.436;2023-02-28T02:57:01;6.13;5.00;3.50
64861;PMS5003;62652;42.274;-71.436;2023-02-28T02:58:01;6.23;6.10;4.10
64861;PMS5003;62652;42.274;-71.436;2023-02-28T02:59:01;3.83;3.67;2.20
64861;PMS5003;62652;42.274;-71.436;2023-02-28T03:00:00;3.97;3.90;2.80
64861;PMS5003;62652;42.274;-71.436;2023-02-28T03:01:01;6.47;5.93;4.07
64861;PMS5003;62652;42.274;-71.436;2023-02-28T03:02:01;5.77;5.03;3.00
64861;PMS5003;62652;42.274;-71.436;2023-02-28T03:03:00;8.07;7.13;3.97
64861;PMS5003;62652;42.274;-71.436;2023-02-28T03:04:01;6.07;5.00;3.77
64861;PMS5003;62652;42.274;-71.436;2023-02-28T03:05:01;6.00;5.80;3.77
64861;PMS5003;62652;42.274;-71.436;2023-02-28T03:06:00;8.40;6.33;3.63
64861;PMS5003;62652;42.274;-71.436;2023-02-28T03:07:00;8.07;7.37;2.90
64861;PMS5003;62652;42.274;-71.436;2023-02-28T03:08:02;6.83;6.67;4.20
64861;PMS5003;62652;42.274;-71.436;2023-02-28T03:09:00;5.60;5.00;3.63
64861;PMS5003;62652;42.274;-71.436;2023-02-28T03:10:00;5.10;4.13;3.00
64861;PMS5003;62652;42.274;-71.436;2023-02-28T03:11:00;4.27;4.10;3.00
64861;PMS5003;62652;42.274;-71.436;2023-02-28T03:12:00;5.37;5.17;3.20
64861;PMS5003;62652;42.274;-71.436;2023-02-28T03:14:04;5.80;5.40;3.33
64861;PMS5003;62652;42.274;-71.436;2023-02-28T03:15:03;4.00;4.00;3.00
64861;PMS5003;62652;42.274;-71.436;2023-02-28T03:16:05;6.27;5.57;3.03
64861;PMS5003;62652;42.274;-71.436;2023-02-28T03:17:06;6.20;5.13;3.70
64861;PMS5003;62652;42.274;-71.436;2023-02-28T03:18:01;4.40;4.07;3.00
64861;PMS5003;62652;42.274;-71.436;2023-02-28T03:19:03;4.83;4.83;2.90
64861;PMS5003;62652;42.274;-71.436;2023-02-28T03:20:03;5.00;4.43;2.83
64861;PMS5003;62652;42.274;-71.436;2023-02-28T03:21:02;6.70;5.07;3.20
64861;PMS5003;62652;42.274;-71.436;2023-02-28T03:22:04;4.30;4.13;2.93
64861;PMS5003;62652;42.274;-71.436;2023-02-28T03:23:02;7.70;4.03;2.90
64861;PMS5003;62652;42.274;-71.436;2023-02-28T03:24:02;5.20;4.43;3.00
64861;PMS5003;62652;42.274;-71.436;2023-02-28T03:25:01;6.40;5.40;3.53
64861;PMS5003;62652;42.274;-71.436;2023-02-28T03:26:02;4.67;4.10;2.67
64861;PMS5003;62652;42.274;-71.436;2023-02-28T03:27:03;5.70;4.67;3.07
64861;PMS5003;62652;42.274;-71.436;2023-02-28T03:28:02;4.90;4.20;2.37
64861;PMS5003;62652;42.274;-71.436;2023-02-28T03:29:02;5.73;4.73;3.00
64861;PMS5003;62652;42.274;-71.436;2023-02-28T03:30:00;3.97;2.80;2.00
64861;PMS5003;62652;42.274;-71.436;2023-02-28T03:31:02;3.80;2.40;1.90
64861;PMS5003;62652;42.274;-71.436;2023-02-28T03:32:02;4.33;4.07;2.23
64861;PMS5003;62652;42.274;-71.436;2023-02-28T03:33:02;4.00;4.00;2.00
64861;PMS5003;62652;42.274;-71.436;2023-02-28T03:34:01;3.90;3.23;1.97
64861;PMS5003;62652;42.274;-71.436;2023-02-28T03:35:01;3.57;3.37;2.27
64861;PMS5003;62652;42.274;-71.436;2023-02-28T03:36:01;3.40;3.40;2.00
64861;PMS5003;62652;42.274;-71.436;2023-02-28T03:37:01;5.10;4.57;3.00
64861;PMS5003;62652;42.274;-71.436;2023-02-28T03:38:03;5.17;3.37;2.37
64861;PMS5003;62652;42.274;-71.436;2023-02-28T03:39:01;6.80;4.70;3.20
64861;PMS5003;62652;42.274;-71.436;2023-02-28T03:40:01;4.50;4.50;2.50
64861;PMS5003;62652;42.274;-71.436;2023-02-28T03:41:02;3.67;3.63;2.17
64861;PMS5003;62652;42.274;-71.436;2023-02-28T03:42:00;3.83;3.07;2.03
64861;PMS5003;62652;42.274;-71.436;2023-02-28T03:43:01;4.13;3.20;2.10
64861;PMS5003;62652;42.274;-71.436;2023-02-28T03:44:02;3.60;3.60;1.87
64861;PMS5003;62652;42.274;-71.436;2023-02-28T03:45:02;2.67;2.37;1.47
64861;PMS5003;62652;42.274;-71.436;2023-02-28T03:46:00;4.67;4.07;2.20
64861;PMS5003;62652;42.274;-71.436;2023-02-28T03:47:02;3.20;2.67;2.57
64861;PMS5003;62652;42.274;-71.436;2023-02-28T03:48:01;4.27;3.00;2.00
64861;PMS5003;62652;42.274;-71.436;2023-02-28T03:49:01;4.30;3.93;2.00
64861;PMS5003;62652;42.274;-71.436;2023-02-28T03:50:01;3.83;3.80;1.87
64861;PMS5003;62652;42.274;-71.436;2023-02-28T03:51:00;4.47;3.57;2.00
64861;PMS5003;62652;42.274;-71.436;2023-02-28T03:52:00;4.83;3.80;2.00
64861;PMS5003;62652;42.274;-71.436;2023-02-28T03:53:00;3.27;2.83;1.83
64861;PMS5003;62652;42.274;-71.436;2023-02-28T03:54:02;2.00;2.00;1.10
64861;PMS5003;62652;42.274;-71.436;2023-02-28T03:55:01;3.10;2.33;1.23
64861;PMS5003;62652;42.274;-71.436;2023-02-28T03:56:01;3.37;2.90;2.20
64861;PMS5003;62652;42.274;-71.436;2023-02-28T03:57:02;3.47;3.47;1.67
64861;PMS5003;62652;42.274;-71.436;2023-02-28T03:58:01;3.73;3.20;2.00
64861;PMS5003;62652;42.274;-71.436;2023-02-28T03:59:01;2.33;2.33;1.43
64861;PMS5003;62652;42.274;-71.436;2023-02-28T04:00:02;2.00;2.00;1.20
64861;PMS5003;62652;42.274;-71.436;2023-02-28T04:01:01;4.17;3.53;1.93
64861;PMS5003;62652;42.274;-71.436;2023-02-28T04:02:00;2.87;2.13;1.43
64861;PMS5003;62652;42.274;-71.436;2023-02-28T04:03:00;3.53;3.40;2.00
64861;PMS5003;62652;42.274;-71.436;2023-02-28T04:04:00;3.73;3.53;2.63
64861;PMS5003;62652;42.274;-71.436;2023-02-28T04:05:00;2.97;2.47;1.90
64861;PMS5003;62652;42.274;-71.436;2023-02-28T04:06:00;3.33;2.83;1.57
64861;PMS5003;62652;42.274;-71.436;2023-02-28T04:07:01;3.90;2.63;1.00
64861;PMS5003;62652;42.274;-71.436;2023-02-28T04:08:04;3.17;2.80;1.83
64861;PMS5003;62652;42.274;-71.436;2023-02-28T04:09:01;4.53;3.33;2.00
64861;PMS5003;62652;42.274;-71.436;2023-02-28T04:10:00;2.50;2.17;1.00
64861;PMS5003;62652;42.274;-71.436;2023-02-28T04:11:01;3.60;3.60;2.00
64861;PMS5003;62652;42.274;-71.436;2023-02-28T04:12:00;3.47;3.17;2.33
64861;PMS5003;62652;42.274;-71.436;2023-02-28T04:13:00;3.00;2.47;1.33
64861;PMS5003;62652;42.274;-71.436;2023-02-28T04:14:00;3.63;3.00;1.53
64861;PMS5003;62652;42.274;-71.436;2023-02-28T04:15:00;3.00;2.83;1.73
64861;PMS5003;62652;42.274;-71.436;2023-02-28T04:16:00;3.63;3.00;2.20
64861;PMS5003;62652;42.274;-71.436;2023-02-28T04:17:00;3.63;2.77;2.00
64861;PMS5003;62652;42.274;-71.436;2023-02-28T04:18:01;4.13;3.10;2.10
64861;PMS5003;62652;42.274;-71.436;2023-02-28T04:19:00;3.27;3.00;1.90
64861;PMS5003;62652;42.274;-71.436;2023-02-28T04:20:00;2.97;2.97;1.83
64861;PMS5003;62652;42.274;-71.436;2023-02-28T04:21:00;3.03;3.03;2.03
64861;PMS5003;62652;42.274;-71.436;2023-02-28T04:22:00;1.90;1.90;1.00
64861;PMS5003;62652;42.274;-71.436;2023-02-28T04:23:00;1.97;1.90;1.00
64861;PMS5003;62652;42.274;-71.436;2023-02-28T04:24:00;3.13;2.93;1.80
64861;PMS5003;62652;42.274;-71.436;2023-02-28T04:25:00;3.40;3.33;1.03
64861;PMS5003;62652;42.274;-71.436;2023-02-28T04:26:00;3.77;3.30;2.00
64861;PMS5003;62652;42.274;-71.436;2023-02-28T04:27:00;3.13;2.63;2.00
64861;PMS5003;62652;42.274;-71.436;2023-02-28T04:28:00;3.47;3.47;2.10
64861;PMS5003;62652;42.274;-71.436;2023-02-28T04:29:01;4.27;3.27;1.93
64861;PMS5003;62652;42.274;-71.436;2023-02-28T04:30:00;3.80;3.20;2.00
64861;PMS5003;62652;42.274;-71.436;2023-02-28T04:31:01;3.30;3.30;2.53
64861;PMS5003;62652;42.274;-71.436;2023-02-28T04:32:00;6.27;4.90;2.53
64861;PMS5003;62652;42.274;-71.436;2023-02-28T04:33:00;3.50;2.93;2.00
64861;PMS5003;62652;42.274;-71.436;2023-02-28T04:34:00;3.10;2.97;1.83
64861;PMS5003;62652;42.274;-71.436;2023-02-28T04:35:00;3.00;3.00;2.03
64861;PMS5003;62652;42.274;-71.436;2023-02-28T04:36:01;4.93;4.53;3.00
64861;PMS5003;62652;42.274;-71.436;2023-02-28T04:37:00;3.60;2.50;1.27
64861;PMS5003;62652;42.274;-71.436;2023-02-28T04:38:00;5.20;3.90;2.87
64861;PMS5003;62652;42.274;-71.436;2023-02-28T04:39:00;2.80;2.33;1.43
64861;PMS5003;62652;42.274;-71.436;2023-02-28T04:40:00;3.63;3.53;2.47
64861;PMS5003;62652;42.274;-71.436;2023-02-28T04:41:00;3.03;2.83;1.93
64861;PMS5003;62652;42.274;-71.436;2023-02-28T04:42:00;2.23;2.00;1.00
64861;PMS5003;62652;42.274;-71.436;2023-02-28T04:43:00;1.90;1.90;1.00
64861;PMS5003;62652;42.274;-71.436;2023-02-28T04:44:00;2.23;2.23;1.47
64861;PMS5003;62652;42.274;-71.436;2023-02-28T04:45:00;3.67;3.07;2.10
64861;PMS5003;62652;42.274;-71.436;2023-02-28T04:46:01;2.03;2.03;1.27
64861;PMS5003;62652;42.274;-71.436;2023-02-28T04:47:00;2.30;2.30;1.20
64861;PMS5003;62652;42.274;-71.436;2023-02-28T04:48:00;3.00;2.80;1.70
64861;PMS5003;62652;42.274;-71.436;2023-02-28T04:49:00;3.13;2.83;1.83
64861;PMS5003;62652;42.274;-71.436;2023-02-28T04:50:00;2.40;2.07;0.70
64861;PMS5003;62652;42.274;-71.436;2023-02-28T04:51:00;4.00;2.97;1.93
64861;PMS5003;62652;42.274;-71.436;2023-02-28T04:52:00;3.93;3.87;1.80
64861;PMS5003;62652;42.274;-71.436;2023-02-28T04:53:00;3.20;2.57;1.80
64861;PMS5003;62652;42.274;-71.436;2023-02-28T04:54:00;2.97;2.97;2.33
64861;PMS5003;62652;42.274;-71.436;2023-02-28T04:55:00;1.97;1.90;1.00
64861;PMS5003;62652;42.274;-71.436;2023-02-28T04:56:00;3.07;2.83;1.83
64861;PMS5003;62652;42.274;-71.436;2023-02-28T04:57:00;2.87;2.00;1.60
64861;PMS5003;62652;42.274;-71.436;2023-02-28T04:58:00;2.00;2.00;1.00
64861;PMS5003;62652;42.274;-71.436;2023-02-28T04:59:00;3.50;2.57;1.63
64861;PMS5003;62652;42.274;-71.436;2023-02-28T05:00:00;1.90;1.73;1.00
64861;PMS5003;62652;42.274;-71.436;2023-02-28T05:01:02;2.63;2.27;1.17
64861;PMS5003;62652;42.274;-71.436;2023-02-28T05:02:00;2.33;2.23;1.43
64861;PMS5003;62652;42.274;-71.436;2023-02-28T05:03:00;1.77;1.57;0.97
64861;PMS5003;62652;42.274;-71.436;2023-02-28T05:04:01;3.10;2.90;2.00
64861;PMS5003;62652;42.274;-71.436;2023-02-28T05:05:00;3.07;2.57;1.43
64861;PMS5003;62652;42.274;-71.436;2023-02-28T05:06:00;4.00;3.13;2.00
64861;PMS5003;62652;42.274;-71.436;2023-02-28T05:07:00;2.30;2.17;2.00
64861;PMS5003;62652;42.274;-71.436;2023-02-28T05:08:00;3.10;3.10;1.37
64861;PMS5003;62652;42.274;-71.436;2023-02-28T05:09:00;3.77;3.37;2.10
64861;PMS5003;62652;42.274;-71.436;2023-02-28T05:10:00;3.53;3.20;2.00
64861;PMS5003;62652;42.274;-71.436;2023-02-28T05:11:00;6.10;4.83;2.60
64861;PMS5003;62652;42.274;-71.436;2023-02-28T05:12:00;5.13;3.97;2.33
64861;PMS5003;62652;42.274;-71.436;2023-02-28T05:13:00;6.53;4.60;2.80
64861;PMS5003;62652;42.274;-71.436;2023-02-28T05:14:00;4.97;4.30;2.63
64861;PMS5003;62652;42.274;-71.436;2023-02-28T05:15:00;3.23;3.23;2.60
64861;PMS5003;62652;42.274;-71.436;2023-02-28T05:16:00;3.00;2.77;1.30
64861;PMS5003;62652;42.274;-71.436;2023-02-28T05:17:00;4.10;3.80;1.53
64861;PMS5003;62652;42.274;-71.436;2023-02-28T05:18:00;3.50;3.20;1.90
64861;PMS5003;62652;42.274;-71.436;2023-02-28T05:19:00;3.33;3.23;1.73
64861;PMS5003;62652;42.274;-71.436;2023-02-28T05:20:00;4.13;2.77;1.57
64861;PMS5003;62652;42.274;-71.436;2023-02-28T05:21:00;3.70;3.13;1.90
64861;PMS5003;62652;42.274;-71.436;2023-02-28T05:22:00;4.20;3.27;2.00
64861;PMS5003;62652;42.274;-71.436;2023-02-28T05:23:00;4.27;4.03;2.27
64861;PMS5003;62652;42.274;-71.436;2023-02-28T05:24:01;3.50;2.87;1.70
64861;PMS5003;62652;42.274;-71.436;2023-02-28T05:25:00;2.33;2.33;1.60
64861;PMS5003;62652;42.274;-71.436;2023-02-28T05:26:00;3.73;2.90;1.10
64861;PMS5003;62652;42.274;-71.436;2023-02-28T05:27:00;3.93;3.43;2.17
64861;PMS5003;62652;42.274;-71.436;2023-02-28T05:28:00;4.57;3.53;1.70
64861;PMS5003;62652;42.274;-71.436;2023-02-28T05:29:00;3.13;3.07;2.00
64861;PMS5003;62652;42.274;-71.436;2023-02-28T05:30:00;4.87;4.30;2.83
64861;PMS5003;62652;42.274;-71.436;2023-02-28T05:31:00;3.27;2.97;1.90
64861;PMS5003;62652;42.274;-71.436;2023-02-28T05:32:00;3.90;3.90;2.00
64861;PMS5003;62652;42.274;-71.436;2023-02-28T05:33:00;2.90;2.67;2.00
64861;PMS5003;62652;42.274;-71.436;2023-02-28T05:34:00;3.00;3.00;2.00
64861;PMS5003;62652;42.274;-71.436;2023-02-28T05:35:00;4.40;3.40;1.83
64861;PMS5003;62652;42.274;-71.436;2023-02-28T05:36:00;4.43;3.60;2.00
64861;PMS5003;62652;42.274;-71.436;2023-02-28T05:37:00;3.67;3.23;2.23
64861;PMS5003;62652;42.274;-71.436;2023-02-28T05:38:00;3.47;3.47;2.47
64861;PMS5003;62652;42.274;-71.436;2023-02-28T05:39:00;2.77;2.77;1.97
64861;PMS5003;62652;42.274;-71.436;2023-02-28T05:40:00;6.10;3.93;2.73
64861;PMS5003;62652;42.274;-71.436;2023-02-28T05:41:04;2.50;2.03;1.90
64861;PMS5003;62652;42.274;-71.436;2023-02-28T05:42:00;3.97;3.57;2.00
64861;PMS5003;62652;42.274;-71.436;2023-02-28T05:43:00;6.70;3.67;1.90
64861;PMS5003;62652;42.274;-71.436;2023-02-28T05:44:00;4.53;3.47;2.00
64861;PMS5003;62652;42.274;-71.436;2023-02-28T05:45:00;5.27;3.20;2.00
64861;PMS5003;62652;42.274;-71.436;2023-02-28T05:46:02;3.50;3.10;2.00
64861;PMS5003;62652;42.274;-71.436;2023-02-28T05:47:00;3.70;3.20;2.00